Time;durP1;ratioP1;P1;durP2;ratioP2;P2;SDS_P1;SDS_P2;PMS_P1;PMS_P2;Temp;Humidity;BMP_temperature;BMP_pressure;BME280_temperature;BME280_humidity;BME280_pressure;Samples;Min_cycle;Max_cycle;Signal;HPM_P1;HPM_P2
2022/01/04 00:00:29;;;;;;;2.22;1.90;;;;;;;6.98;89.24;97524.91;4973860;28;20054;-87
2022/01/04 00:02:55;;;;;;;3.63;2.00;;;;;;;6.97;88.96;97521.44;4973415;28;20050;-86
2022/01/04 00:05:21;;;;;;;3.03;2.10;;;;;;;6.98;89.26;97516.94;4986928;28;20032;-86
2022/01/04 00:07:46;;;;;;;1.45;1.35;;;;;;;6.40;89.10;97423.31;4956086;28;20082;-87
2022/01/04 00:10:12;;;;;;;1.95;1.70;;;;;;;6.97;89.38;97496.81;4973509;28;20031;-87
2022/01/04 00:15:22;;;;;;;3.90;2.53;;;;;;;6.90;89.23;97473.16;4973342;29;20038;-87
2022/01/04 00:17:48;;;;;;;3.67;2.47;;;;;;;7.00;89.13;97489.13;4989652;28;20106;-87
2022/01/04 00:20:13;;;;;;;2.50;1.73;;;;;;;6.80;89.00;97452.69;4953383;29;20103;-86
2022/01/04 00:22:39;;;;;;;2.28;1.95;;;;;;;6.34;88.94;97386.44;4947366;29;20036;-86
2022/01/04 00:25:05;;;;;;;3.00;2.35;;;;;;;7.00;89.56;97486.47;4935325;29;20035;-86
2022/01/04 00:27:31;;;;;;;5.13;2.20;;;;;;;6.97;89.07;97484.31;4943666;28;20507;-87
2022/01/04 00:29:56;;;;;;;5.05;2.28;;;;;;;6.99;89.82;97489.38;4949149;28;20027;-86
2022/01/04 00:32:22;;;;;;;2.80;2.10;;;;;;;6.97;89.01;97481.66;4955696;28;20067;-86
2022/01/04 00:34:47;;;;;;;1.60;1.50;;;;;;;6.84;89.20;97458.25;4936544;29;20031;-88
2022/01/04 00:37:13;;;;;;;3.60;2.53;;;;;;;6.86;89.20;97468.63;4940084;28;20035;-87
2022/01/04 00:39:38;;;;;;;3.20;2.03;;;;;;;6.96;88.85;97474.78;4935018;29;20027;-88
2022/01/04 00:42:04;;;;;;;2.85;2.00;;;;;;;6.97;89.20;97488.84;4926610;28;20437;-89
2022/01/04 00:44:31;;;;;;;3.55;1.90;;;;;;;6.98;89.14;97477.97;4954399;28;20035;-88
2022/01/04 00:46:56;;;;;;;3.00;1.48;;;;;;;6.74;89.01;97447.63;4954056;28;20131;-88
2022/01/04 00:49:22;;;;;;;2.92;1.70;;;;;;;6.89;88.66;97466.25;4934408;29;20023;-88
2022/01/04 00:51:52;;;;;;;2.60;1.65;;;;;;;6.72;88.90;97431.97;4947970;28;20034;-86
2022/01/04 00:54:18;;;;;;;3.25;1.95;;;;;;;6.97;88.66;97467.63;4955466;28;20035;-85
2022/01/04 00:56:45;;;;;;;2.03;1.50;;;;;;;6.96;89.30;97458.88;4956279;28;20410;-86
2022/01/04 00:59:10;;;;;;;2.58;1.40;;;;;;;6.96;89.22;97461.53;4955963;28;20114;-86
2022/01/04 01:01:37;;;;;;;1.90;1.33;;;;;;;6.99;88.67;97457.56;4958344;28;20035;-86
2022/01/04 01:04:04;;;;;;;2.50;1.33;;;;;;;6.98;88.36;97442.69;4954577;28;20023;-86
2022/01/04 01:06:29;;;;;;;1.48;1.38;;;;;;;6.98;88.76;97451.44;4936616;28;20600;-87
2022/01/04 01:08:55;;;;;;;1.90;1.20;;;;;;;7.00;88.54;97437.91;4919770;29;20118;-88
2022/01/04 01:11:21;;;;;;;1.45;1.35;;;;;;;7.00;88.90;97435.25;4940013;29;20031;-87
2022/01/04 01:13:47;;;;;;;2.78;1.48;;;;;;;6.99;88.34;97426.50;4953897;28;20028;-88
2022/01/04 01:16:12;;;;;;;2.13;1.50;;;;;;;6.98;88.80;97430.22;4959828;28;20031;-88
2022/01/04 01:18:39;;;;;;;2.38;1.23;;;;;;;7.01;88.25;97419.06;4957593;28;20027;-87
2022/01/04 01:21:05;;;;;;;2.05;1.58;;;;;;;6.67;89.11;97365.66;4955701;29;20046;-87
2022/01/04 01:23:31;;;;;;;2.65;1.73;;;;;;;7.00;88.49;97417.50;4949115;28;20151;-87
2022/01/04 01:25:57;;;;;;;2.22;1.60;;;;;;;7.00;88.55;97412.19;4955800;28;20034;-86
2022/01/04 01:28:23;;;;;;;1.35;1.25;;;;;;;7.02;88.53;97407.44;4956009;28;20026;-87
2022/01/04 01:30:49;;;;;;;3.28;1.50;;;;;;;6.92;89.12;97396.78;4962485;28;20058;-87
2022/01/04 01:33:16;;;;;;;2.92;1.92;;;;;;;6.97;89.03;97402.09;4954562;28;20090;-86
2022/01/04 01:35:41;;;;;;;1.80;1.63;;;;;;;7.01;88.61;97400.50;4961740;28;20103;-86
2022/01/04 01:38:08;;;;;;;2.38;1.33;;;;;;;7.03;88.03;97406.38;4956258;28;20032;-87
2022/01/04 01:40:35;;;;;;;2.50;1.23;;;;;;;7.00;88.54;97390.97;4963330;28;20027;-85
2022/01/04 01:43:01;;;;;;;1.67;1.55;;;;;;;7.01;88.96;97389.13;4934049;29;20103;-87
2022/01/04 01:45:27;;;;;;;1.95;1.45;;;;;;;6.94;89.10;97383.25;4955614;28;20055;-87
2022/01/04 01:47:53;;;;;;;1.58;1.48;;;;;;;7.01;89.19;97387.25;4950457;29;20440;-87
2022/01/04 01:50:19;;;;;;;3.55;1.60;;;;;;;7.02;88.69;97375.59;4951531;28;20047;-86
2022/01/04 01:52:48;;;;;;;1.95;1.70;;;;;;;6.99;89.03;97370.81;4951782;28;20066;-87
2022/01/04 01:55:17;;;;;;;2.67;1.50;;;;;;;7.00;88.82;97372.41;4946224;28;20036;-86
2022/01/04 01:57:42;;;;;;;2.38;1.30;;;;;;;7.00;89.25;97371.59;4934097;28;20051;-87
2022/01/04 02:39:02;;;;;;;0.93;0.93;;;;;;;6.32;88.68;97189.84;4992218;28;20050;-89
2022/01/04 02:41:30;;;;;;;0.88;0.82;;;;;;;6.49;88.91;97228.31;4994270;28;20040;-89
2022/01/04 02:44:11;;;;;;;1.08;0.93;;;;;;;6.96;88.84;97288.31;5001515;28;20026;-89
2022/01/04 02:46:45;;;;;;;1.30;0.90;;;;;;;6.48;89.00;97213.47;4992696;28;20073;-89
2022/01/04 02:49:14;;;;;;;0.90;0.90;;;;;;;6.62;89.54;97225.16;4992645;28;20471;-89
2022/01/04 02:51:42;;;;;;;2.60;1.30;;;;;;;6.76;89.37;97244.00;4992742;28;20030;-89
2022/01/04 02:54:08;;;;;;;1.55;1.45;;;;;;;6.87;89.54;97258.06;4983063;23;20453;-85
2022/01/04 02:56:33;;;;;;;3.00;1.20;;;;;;;6.78;88.87;97241.88;4956099;28;20072;-86
2022/01/04 02:59:03;;;;;;;1.98;1.23;;;;;;;6.88;89.22;97260.44;4967178;28;20074;-86
2022/01/04 03:01:29;;;;;;;1.65;1.55;;;;;;;6.37;89.06;97176.63;4950117;28;20063;-86
2022/01/04 03:03:55;;;;;;;1.77;1.15;;;;;;;6.94;89.71;97264.72;4975930;28;20106;-85
2022/01/04 03:06:20;;;;;;;1.52;1.20;;;;;;;6.38;89.03;97173.69;4988478;28;20205;-85
2022/01/04 03:08:45;;;;;;;2.72;0.98;;;;;;;6.45;89.04;97181.38;4973461;28;20069;-85
2022/01/04 03:11:11;;;;;;;2.97;1.13;;;;;;;6.21;88.82;97144.00;4976773;28;20085;-86
2022/01/04 03:13:36;;;;;;;1.10;1.00;;;;;;;6.89;89.00;97240.84;4955368;28;20035;-86
2022/01/04 03:16:01;;;;;;;1.63;1.20;;;;;;;6.82;89.16;97235.78;4956778;28;20667;-85
2022/01/04 03:18:27;;;;;;;1.30;1.20;;;;;;;6.44;89.54;97167.38;4953410;28;20031;-86
2022/01/04 03:20:52;;;;;;;1.27;1.17;;;;;;;6.51;89.64;97183.78;4969494;28;20035;-85
2022/01/04 03:23:17;;;;;;;1.67;1.30;;;;;;;6.63;89.17;97196.78;4972648;28;20035;-85
2022/01/04 03:25:42;;;;;;;1.20;0.88;;;;;;;6.89;89.33;97230.22;4974117;28;20093;-85
2022/01/04 03:28:08;;;;;;;1.50;1.00;;;;;;;6.88;89.42;97220.66;4959199;28;20035;-86
2022/01/04 03:30:33;;;;;;;1.48;1.38;;;;;;;6.87;88.66;97216.44;4973047;28;20026;-85
2022/01/04 03:33:00;;;;;;;1.67;1.50;;;;;;;6.86;89.41;97216.72;4973966;28;20097;-86
2022/01/04 03:35:25;;;;;;;2.08;1.50;;;;;;;6.87;89.68;97212.97;4943676;28;20113;-86
2022/01/04 03:37:50;;;;;;;1.25;1.15;;;;;;;6.39;89.57;97130.25;4976365;28;20607;-86
2022/01/04 03:40:16;;;;;;;1.48;1.20;;;;;;;6.65;89.44;97166.31;4970293;28;20047;-85
2022/01/04 03:42:41;;;;;;;2.08;1.58;;;;;;;6.48;89.22;97141.13;4943904;28;20019;-86
2022/01/04 03:45:07;;;;;;;1.13;1.02;;;;;;;6.70;89.73;97176.13;4981760;28;20037;-86
2022/01/04 03:47:33;;;;;;;2.38;1.65;;;;;;;6.73;89.28;97180.88;4979882;28;20031;-86
2022/01/04 03:49:59;;;;;;;2.53;1.38;;;;;;;6.86;89.14;97188.31;4975845;28;20069;-85
2022/01/04 03:52:24;;;;;;;2.95;1.58;;;;;;;6.87;90.09;97189.91;4986446;28;20428;-85
2022/01/04 03:54:49;;;;;;;1.75;1.45;;;;;;;6.88;89.39;97188.84;4983562;28;20034;-84
2022/01/04 03:57:15;;;;;;;2.35;1.40;;;;;;;6.32;89.73;97100.56;4988024;28;20070;-86
2022/01/04 03:59:40;;;;;;;1.70;1.45;;;;;;;6.10;88.96;97062.13;4977881;28;20110;-86
2022/01/04 04:02:05;;;;;;;1.38;1.27;;;;;;;6.28;89.77;97088.09;4955412;28;20046;-86
2022/01/04 04:04:31;;;;;;;1.70;1.35;;;;;;;6.81;89.00;97156.50;4970709;28;20035;-86
2022/01/04 04:06:56;;;;;;;1.83;1.67;;;;;;;6.69;89.69;97140.06;4971492;28;20447;-86
2022/01/04 04:09:22;;;;;;;1.27;1.17;;;;;;;6.27;89.38;97071.41;4966171;28;20062;-86
2022/01/04 04:11:47;;;;;;;1.85;1.40;;;;;;;6.57;89.97;97128.94;4971712;28;20031;-86
2022/01/04 04:14:12;;;;;;;2.20;1.50;;;;;;;6.30;89.45;97070.09;4954768;28;20552;-86
2022/01/04 04:16:38;;;;;;;2.63;1.50;;;;;;;6.85;89.48;97148.81;4958534;28;20030;-86
2022/01/04 04:19:03;;;;;;;5.10;1.55;;;;;;;6.38;89.68;97083.59;4975594;28;20511;-85
2022/01/04 04:21:28;;;;;;;3.60;1.60;;;;;;;6.61;89.64;97103.50;4974066;28;20399;-86
2022/01/04 04:23:54;;;;;;;2.15;1.50;;;;;;;6.28;89.79;97051.00;4980095;28;20110;-86
2022/01/04 04:26:19;;;;;;;2.40;1.85;;;;;;;6.54;90.08;97079.09;4937775;28;20090;-86
2022/01/04 04:28:44;;;;;;;1.73;1.48;;;;;;;6.37;89.35;97044.13;4970477;28;20031;-86
2022/01/04 04:31:10;;;;;;;2.40;1.60;;;;;;;6.41;89.42;97048.63;4941821;28;20187;-85
2022/01/04 04:33:35;;;;;;;1.40;1.25;;;;;;;6.34;89.43;97042.81;4973515;28;21961;-86
2022/01/04 04:36:01;;;;;;;2.88;1.63;;;;;;;6.73;89.60;97099.50;4991298;28;20033;-86
2022/01/04 04:38:26;;;;;;;2.75;1.70;;;;;;;6.36;89.20;97029.28;4974102;28;20038;-86
2022/01/04 04:40:52;;;;;;;2.13;1.92;;;;;;;6.40;89.40;97054.97;4976155;28;20041;-86
2022/01/04 04:43:17;;;;;;;2.83;1.60;;;;;;;6.26;89.13;97010.75;4979786;28;20502;-88
2022/01/04 04:45:42;;;;;;;3.30;1.75;;;;;;;6.31;89.96;97016.06;4974639;28;20495;-86
2022/01/04 04:48:07;;;;;;;3.05;2.08;;;;;;;6.41;89.57;97046.00;4981690;28;20097;-86
2022/01/04 04:50:33;;;;;;;2.70;1.48;;;;;;;6.79;90.08;97100.31;4992179;28;20478;-86
2022/01/04 04:52:59;;;;;;;2.08;1.83;;;;;;;6.70;89.92;97078.03;4975809;28;20050;-85
2022/01/04 04:55:24;;;;;;;2.25;2.05;;;;;;;6.62;90.12;97062.66;4965793;28;20034;-86
2022/01/04 04:57:49;;;;;;;3.92;1.90;;;;;;;6.47;89.21;97029.03;4982213;28;20092;-86
2022/01/04 05:00:15;;;;;;;3.13;2.17;;;;;;;6.58;90.04;97038.56;4971191;28;20045;-86
2022/01/04 05:02:40;;;;;;;2.92;2.00;;;;;;;6.45;89.81;97011.78;4953736;28;20070;-88
2022/01/04 05:05:07;;;;;;;1.80;1.70;;;;;;;6.82;89.91;97057.34;4978102;28;20429;-86
2022/01/04 05:07:32;;;;;;;1.50;1.40;;;;;;;6.44;89.18;96984.53;4987884;28;20034;-86
2022/01/04 05:09:58;;;;;;;2.75;1.90;;;;;;;6.48;89.29;96987.41;4958145;28;20399;-87
2022/01/04 05:12:23;;;;;;;1.67;1.58;;;;;;;6.38;89.77;96977.63;4940628;28;20041;-88
2022/01/04 05:14:49;;;;;;;2.35;1.85;;;;;;;6.56;89.43;97000.13;4960218;28;20034;-85
2022/01/04 05:17:14;;;;;;;4.47;2.47;;;;;;;6.25;89.79;96959.63;4960121;28;20141;-85
2022/01/04 05:19:40;;;;;;;2.30;2.10;;;;;;;6.81;89.74;97037.19;4969210;28;20531;-85
2022/01/04 05:22:05;;;;;;;3.20;2.28;;;;;;;6.79;89.94;97028.72;4954834;28;20028;-85
2022/01/04 05:24:31;;;;;;;2.80;2.30;;;;;;;6.39;89.87;96968.63;4971392;28;20023;-86
2022/01/04 05:26:56;;;;;;;2.97;2.38;;;;;;;6.55;89.53;96970.16;4957021;28;20042;-85
2022/01/04 05:29:22;;;;;;;3.25;2.45;;;;;;;6.80;89.91;97001.13;4959929;28;20035;-86
2022/01/04 05:31:47;;;;;;;3.20;2.72;;;;;;;6.62;89.62;96965.38;4974530;28;20027;-86
2022/01/04 05:34:12;;;;;;;3.50;2.63;;;;;;;6.38;89.84;96919.34;4974825;28;20473;-86
2022/01/04 05:36:38;;;;;;;3.42;2.53;;;;;;;6.15;89.52;96884.69;4973737;28;20399;-86
2022/01/04 05:39:03;;;;;;;2.83;2.47;;;;;;;6.59;90.08;96962.50;4973699;28;20384;-86
2022/01/04 05:41:29;;;;;;;3.33;3.00;;;;;;;6.55;88.93;96941.00;4983323;28;20499;-85
2022/01/04 05:43:54;;;;;;;5.13;2.80;;;;;;;6.13;89.48;96855.03;4973916;28;20034;-86
2022/01/04 05:46:19;;;;;;;2.85;2.63;;;;;;;6.23;89.69;96884.94;4974672;28;20117;-85
2022/01/04 05:48:45;;;;;;;5.53;3.00;;;;;;;6.78;90.37;96960.84;4982871;28;20161;-86
2022/01/04 05:51:12;;;;;;;4.45;3.10;;;;;;;6.63;89.66;96944.97;4981188;28;20462;-86
2022/01/04 05:53:37;;;;;;;3.80;2.65;;;;;;;6.39;89.80;96905.03;4961226;28;20030;-86
2022/01/04 05:56:03;;;;;;;4.75;3.33;;;;;;;6.66;90.20;96942.56;4976805;28;20377;-86
2022/01/04 05:58:29;;;;;;;8.02;3.75;;;;;;;6.78;89.59;96955.53;4973550;28;20053;-87
2022/01/04 06:00:54;;;;;;;4.45;3.20;;;;;;;6.32;90.11;96871.91;4974619;28;20499;-85
2022/01/04 06:03:19;;;;;;;3.70;3.10;;;;;;;6.72;89.92;96948.66;4972901;28;20041;-86
2022/01/04 06:05:45;;;;;;;4.35;3.50;;;;;;;6.75;89.75;96953.41;4983172;28;20035;-86
2022/01/04 06:08:11;;;;;;;3.17;2.70;;;;;;;6.63;89.56;96924.56;4973859;28;20037;-87
2022/01/04 06:10:39;;;;;;;7.13;3.47;;;;;;;6.09;89.57;96849.50;4969809;28;20031;-86
2022/01/04 06:15:30;;;;;;;4.32;3.78;;;;;;;6.68;90.02;96942.31;4974690;28;20542;-86
2022/01/04 06:17:57;;;;;;;4.60;3.15;;;;;;;6.35;89.51;96889.94;4956482;28;20058;-86
2022/01/04 06:20:22;;;;;;;4.53;3.75;;;;;;;6.69;89.70;96952.66;4973739;28;20486;-85
2022/01/04 06:22:49;;;;;;;4.38;3.33;;;;;;;6.56;89.08;96917.97;4974532;28;20118;-86
2022/01/04 06:25:17;;;;;;;3.10;2.80;;;;;;;6.56;89.15;96931.22;4977463;28;20035;-86
2022/01/04 06:27:48;;;;;;;3.17;2.88;;;;;;;6.60;89.58;96938.34;4986707;28;20026;-86
2022/01/04 06:30:17;;;;;;;3.97;3.03;;;;;;;6.35;89.25;96895.25;4939554;28;20022;-88
2022/01/04 06:32:44;;;;;;;3.83;2.80;;;;;;;6.73;90.32;96953.69;4989051;28;20043;-86
2022/01/04 06:35:10;;;;;;;4.57;3.25;;;;;;;6.38;89.37;96894.69;4984366;28;20394;-86
2022/01/04 06:37:36;;;;;;;4.57;2.72;;;;;;;6.71;90.23;96950.53;4966780;28;20034;-86
2022/01/04 06:40:03;;;;;;;3.78;2.47;;;;;;;6.61;89.33;96933.84;4977775;28;20053;-86
2022/01/04 06:42:28;;;;;;;4.72;3.20;;;;;;;6.34;89.49;96883.03;4961363;28;20051;-89
2022/01/04 06:44:54;;;;;;;2.20;2.00;;;;;;;6.61;89.88;96939.97;4972383;28;20499;-86
2022/01/04 06:47:19;;;;;;;2.95;2.50;;;;;;;6.24;89.68;96881.22;4955524;28;20031;-86
2022/01/04 06:49:44;;;;;;;2.85;2.00;;;;;;;6.66;89.70;96950.53;4972433;28;20038;-87
2022/01/04 06:52:10;;;;;;;2.63;2.25;;;;;;;6.25;89.83;96882.00;4961623;28;20047;-86
2022/01/04 06:54:35;;;;;;;1.75;1.65;;;;;;;6.26;89.42;96886.25;4961024;28;20085;-86
2022/01/04 06:57:01;;;;;;;1.83;1.67;;;;;;;5.99;89.36;96834.41;4970512;28;20356;-86
2022/01/04 06:59:27;;;;;;;2.05;1.73;;;;;;;6.27;90.32;96864.00;4967294;28;20062;-87
2022/01/04 07:01:52;;;;;;;3.33;1.90;;;;;;;6.31;89.32;96871.13;4981744;28;20395;-86
2022/01/04 07:04:17;;;;;;;1.85;1.60;;;;;;;5.95;90.03;96816.66;4971569;28;20476;-86
2022/01/04 07:06:43;;;;;;;2.50;1.83;;;;;;;6.72;89.33;96935.41;4995445;28;20034;-86
2022/01/04 07:09:08;;;;;;;3.05;1.95;;;;;;;6.13;89.47;96842.59;4978482;28;20094;-86
2022/01/04 07:11:34;;;;;;;2.35;1.48;;;;;;;6.19;90.15;96851.28;4961737;28;20030;-86
2022/01/04 07:14:00;;;;;;;1.83;1.63;;;;;;;6.68;89.42;96937.78;4969334;28;20085;-85
2022/01/04 07:16:26;;;;;;;1.73;1.40;;;;;;;6.68;89.73;96940.44;4963072;28;20514;-86
2022/01/04 07:18:52;;;;;;;2.10;1.35;;;;;;;6.69;89.30;96928.00;4970020;28;20049;-85
2022/01/04 07:21:19;;;;;;;1.75;1.48;;;;;;;6.57;89.36;96911.59;4968028;28;20467;-88
2022/01/04 07:23:54;;;;;;;1.30;1.20;;;;;;;6.33;90.05;96873.53;4973066;28;20039;-94
2022/01/04 07:26:20;;;;;;;7.57;2.92;;;;;;;5.87;89.33;96796.84;4978981;28;20034;-92
2022/01/04 07:28:47;;;;;;;9.80;1.77;;;;;;;5.92;89.26;96820.66;4970566;28;20034;-91
2022/01/04 07:31:13;;;;;;;7.00;1.40;;;;;;;5.72;89.18;96777.53;4953430;29;20523;-89
2022/01/04 07:33:39;;;;;;;3.65;1.63;;;;;;;6.55;89.45;96903.13;4956880;28;20535;-89
2022/01/04 07:36:09;;;;;;;10.02;1.63;;;;;;;5.54;89.05;96744.47;4972361;28;20109;-90
2022/01/04 07:38:36;;;;;;;2.03;1.42;;;;;;;6.28;88.98;96854.97;4972240;28;20689;-92
2022/01/04 07:41:03;;;;;;;5.47;1.73;;;;;;;6.68;89.38;96931.72;4970083;28;20054;-90
2022/01/04 07:43:28;;;;;;;5.28;1.30;;;;;;;6.66;89.41;96917.94;4967349;28;20404;-89
2022/01/04 07:45:53;;;;;;;1.48;1.38;;;;;;;6.15;89.41;96837.00;4969932;28;20033;-91
2022/01/04 07:48:21;;;;;;;3.85;1.52;;;;;;;5.47;89.51;96722.78;4953356;28;20055;-90
2022/01/04 07:50:58;;;;;;;1.65;1.05;;;;;;;5.40;89.39;96695.03;4956344;28;20027;-90
2022/01/04 07:53:26;;;;;;;1.70;1.38;;;;;;;5.26;89.04;96690.28;4959116;28;20039;-90
2022/01/04 07:55:52;;;;;;;2.22;1.38;;;;;;;5.93;89.48;96782.53;4985944;28;20027;-91
2022/01/04 07:58:45;;;;;;;1.77;1.40;;;;;;;6.63;89.50;96887.47;5002006;28;20042;-92
2022/01/04 08:01:14;;;;;;;1.35;1.23;;;;;;;6.05;89.64;96804.19;4981143;28;20484;-90
2022/01/04 08:06:14;;;;;;;1.55;1.23;;;;;;;6.61;89.54;96881.66;4955827;29;20074;-87
2022/01/04 08:08:42;;;;;;;2.78;1.70;;;;;;;6.58;89.20;96876.06;4956029;29;20019;-87
2022/01/04 09:57:03;;;;;;;1.60;1.50;;;;;;;6.67;89.96;96834.69;514934;26;20329;-86
2022/01/04 09:59:28;;;;;;;1.25;1.20;;;;;;;6.70;90.09;96839.47;4977002;28;20195;-88
2022/01/04 10:02:01;;;;;;;1.45;1.30;;;;;;;6.70;90.41;96842.13;4958999;28;20476;-88
2022/01/04 10:04:27;;;;;;;1.50;1.30;;;;;;;6.72;90.43;96845.28;4977092;28;20376;-89
2022/01/04 10:06:58;;;;;;;2.47;1.63;;;;;;;6.73;89.57;96846.84;4975190;28;20037;-89
2022/01/04 10:09:38;;;;;;;1.67;1.58;;;;;;;6.74;89.76;96851.91;4977191;28;20407;-89
2022/01/04 10:12:10;;;;;;;1.52;1.42;;;;;;;6.75;89.76;96840.22;4988439;28;20085;-89
2022/01/04 10:14:40;;;;;;;1.65;1.55;;;;;;;6.70;89.66;96832.31;4990895;28;20023;-88
2022/01/04 10:17:07;;;;;;;21.45;2.50;;;;;;;6.72;90.23;96837.34;4991596;28;20106;-89
2022/01/04 10:19:38;;;;;;;7.90;2.17;;;;;;;6.77;89.88;96846.03;4992330;28;20455;-89
2022/01/04 10:22:32;;;;;;;10.98;2.75;;;;;;;6.78;90.46;96844.19;4990364;28;20423;-88
2022/01/04 10:25:01;;;;;;;7.82;2.65;;;;;;;6.79;89.05;96841.25;4974090;28;20491;-86
2022/01/04 10:27:28;;;;;;;8.23;2.72;;;;;;;6.79;89.22;96841.25;4986573;28;20114;-90
2022/01/04 10:30:15;;;;;;;4.50;2.03;;;;;;;6.79;88.95;96837.84;4989675;28;20046;-88
2022/01/04 10:32:55;;;;;;;3.72;2.50;;;;;;;6.79;90.11;96817.38;4987854;28;20023;-88
2022/01/04 10:35:33;;;;;;;3.10;2.30;;;;;;;6.80;88.99;96816.34;4989371;28;20121;-85
2022/01/04 10:38:07;;;;;;;3.25;2.15;;;;;;;6.82;90.17;96814.22;4973851;28;20170;-86
2022/01/04 10:40:33;;;;;;;7.75;2.70;;;;;;;6.82;90.24;96805.44;4987973;28;20522;-86
2022/01/04 10:43:14;;;;;;;4.82;2.45;;;;;;;6.84;90.27;96795.38;4972842;28;20027;-87
2022/01/04 10:45:44;;;;;;;3.58;2.45;;;;;;;6.85;89.78;96799.63;4989929;28;20022;-87
2022/01/04 10:48:19;;;;;;;5.15;2.70;;;;;;;6.87;90.11;96797.47;4989778;28;20094;-86
2022/01/04 10:50:49;;;;;;;2.58;2.38;;;;;;;6.89;90.07;96791.88;4990067;28;20054;-86
2022/01/04 10:53:19;;;;;;;2.88;2.25;;;;;;;6.89;89.63;96792.69;4987819;28;20026;-85
2022/01/04 10:55:46;;;;;;;1.98;1.88;;;;;;;6.87;89.85;96789.53;4975431;28;20510;-86
2022/01/04 10:58:23;;;;;;;2.20;2.00;;;;;;;6.31;89.94;96684.91;4990646;28;20122;-86
2022/01/04 11:00:51;;;;;;;2.22;2.03;;;;;;;6.69;90.11;96737.13;4989440;28;20591;-87
2022/01/04 11:03:23;;;;;;;3.58;2.53;;;;;;;6.82;90.03;96739.97;4957804;28;20061;-86
2022/01/04 11:06:01;;;;;;;4.03;2.38;;;;;;;6.57;89.53;96692.44;4974094;28;20151;-85
2022/01/04 11:08:32;;;;;;;2.42;1.92;;;;;;;6.30;89.68;96639.09;4986645;28;20042;-85
2022/01/04 11:11:00;;;;;;;3.70;2.65;;;;;;;6.17;89.30;96615.84;4992675;28;20026;-84
2022/01/04 11:13:26;;;;;;;2.85;2.08;;;;;;;6.62;89.84;96680.97;4991115;28;20446;-86
2022/01/04 11:15:52;;;;;;;4.45;2.75;;;;;;;6.59;89.75;96673.59;4995219;28;20480;-85
2022/01/04 11:18:18;;;;;;;3.78;2.50;;;;;;;6.65;90.20;96677.78;4990844;28;20034;-84
2022/01/04 11:20:45;;;;;;;2.40;2.05;;;;;;;6.83;89.04;96708.94;4973785;28;20035;-83
2022/01/04 11:23:16;;;;;;;2.33;2.00;;;;;;;6.75;89.37;96701.56;4993747;28;20027;-87
2022/01/04 11:25:45;;;;;;;3.50;2.65;;;;;;;6.82;89.13;96717.97;4992500;28;20053;-88
2022/01/04 11:28:15;;;;;;;2.58;2.25;;;;;;;6.79;89.83;96724.59;4977367;28;20038;-88
2022/01/04 11:30:59;;;;;;;4.70;2.72;;;;;;;6.83;89.73;96738.13;4991768;28;20023;-90
2022/01/04 11:33:32;;;;;;;5.63;3.13;;;;;;;6.77;89.68;96737.34;4992412;28;20475;-88
2022/01/04 11:35:59;;;;;;;2.67;2.47;;;;;;;6.81;89.95;96751.63;4993075;28;20031;-89
2022/01/04 11:38:37;;;;;;;5.70;2.70;;;;;;;6.79;89.12;96750.34;4991635;28;20551;-87
2022/01/04 11:41:03;;;;;;;4.45;2.67;;;;;;;6.79;89.72;96767.03;4989062;28;20486;-88
2022/01/04 11:43:34;;;;;;;3.38;2.60;;;;;;;6.77;90.00;96760.44;4988147;28;20029;-88
2022/01/04 11:46:07;;;;;;;2.95;2.55;;;;;;;6.61;89.27;96745.69;4991065;28;20031;-89
2022/01/04 11:48:39;;;;;;;3.67;3.22;;;;;;;6.76;89.56;96770.25;4992890;28;20039;-91
2022/01/04 11:51:30;;;;;;;3.88;3.03;;;;;;;6.72;89.23;96769.22;4977230;28;20488;-90
2022/01/04 11:54:22;;;;;;;3.05;2.70;;;;;;;6.71;89.29;96775.56;4993276;28;20027;-91
2022/01/04 11:56:57;;;;;;;4.00;3.00;;;;;;;6.46;88.63;96729.88;4991736;28;20058;-89
2022/01/04 11:59:32;;;;;;;3.83;3.17;;;;;;;6.51;89.08;96732.50;4992067;28;20471;-90
2022/01/04 12:02:28;;;;;;;3.95;3.38;;;;;;;6.00;88.78;96653.31;4991531;28;20095;-88
2022/01/04 12:04:59;;;;;;;4.05;2.90;;;;;;;6.66;89.14;96745.66;4992358;28;20034;-88
2022/01/04 12:07:49;;;;;;;6.30;3.10;;;;;;;6.68;88.51;96743.53;4992198;28;20023;-91
2022/01/04 12:10:18;;;;;;;7.68;3.28;;;;;;;6.69;88.93;96753.03;4992168;28;20027;-89
2022/01/04 12:13:04;;;;;;;6.07;3.47;;;;;;;6.69;89.00;96761.78;4993232;28;20026;-88
2022/01/04 12:15:33;;;;;;;;;;;;;;;6.69;89.13;96761.78;4991407;28;20475;-89
2022/01/04 12:17:59;;;;;;;5.85;3.53;;;;;;;6.68;89.31;96749.59;4992752;28;19910;-87
2022/01/04 12:20:43;;;;;;;4.47;3.25;;;;;;;6.66;89.48;96754.38;4991307;28;20070;-88
2022/01/04 12:23:30;;;;;;;6.38;3.53;;;;;;;6.65;89.55;96746.72;4982241;28;20086;-90
2022/01/04 12:26:02;;;;;;;4.65;3.50;;;;;;;6.70;89.87;96757.28;4990583;28;20082;-86
2022/01/04 12:28:28;;;;;;;6.53;4.07;;;;;;;6.71;89.77;96749.06;4991740;28;20111;-88
2022/01/04 12:31:16;;;;;;;5.30;3.70;;;;;;;6.53;89.10;96727.72;4992024;28;20031;-87
2022/01/04 12:34:01;;;;;;;6.57;4.05;;;;;;;6.73;88.89;96757.53;4992381;28;20105;-89
2022/01/04 12:36:38;;;;;;;6.15;4.43;;;;;;;6.75;89.00;96749.28;4993152;28;20485;-87
2022/01/04 12:39:20;;;;;;;5.50;3.92;;;;;;;6.76;89.45;96751.69;4979683;28;20454;-88
2022/01/04 12:41:47;;;;;;;6.28;3.60;;;;;;;6.77;90.20;96741.88;4995379;28;20438;-88
2022/01/04 12:44:23;;;;;;;7.72;3.92;;;;;;;6.28;89.17;96659.75;4995547;28;20038;-87
2022/01/04 12:46:52;;;;;;;5.45;4.10;;;;;;;6.78;89.48;96738.13;4994362;28;20031;-86
2022/01/04 12:49:33;;;;;;;5.50;4.13;;;;;;;6.24;89.79;96642.84;4959485;28;20110;-88
2022/01/04 12:52:17;;;;;;;6.35;4.07;;;;;;;6.62;89.65;96702.19;4978810;28;20030;-89
2022/01/04 12:54:51;;;;;;;5.45;3.65;;;;;;;6.72;89.33;96713.53;4979089;28;20077;-90
2022/01/04 12:57:22;;;;;;;6.97;4.13;;;;;;;6.81;88.95;96721.69;4989980;28;20037;-89
2022/01/04 12:59:51;;;;;;;6.18;4.38;;;;;;;6.71;89.07;96700.53;4993563;28;20057;-88
2022/01/04 13:02:28;;;;;;;4.90;3.67;;;;;;;6.71;89.93;96695.25;4977349;28;20125;-88
2022/01/04 13:05:00;;;;;;;4.40;2.90;;;;;;;6.79;89.62;96714.00;4977496;28;20038;-89
2022/01/04 13:07:31;;;;;;;5.28;3.50;;;;;;;6.82;89.35;96710.00;4993658;28;20439;-88
2022/01/04 13:10:01;;;;;;;6.30;3.00;;;;;;;6.80;88.84;96715.59;4993648;28;20114;-90
2022/01/04 13:12:36;;;;;;;4.28;3.05;;;;;;;6.30;89.23;96656.84;4994493;28;20027;-89
2022/01/04 13:15:05;;;;;;;4.80;3.38;;;;;;;6.58;89.69;96699.31;4994624;28;20026;-87
2022/01/04 13:17:33;;;;;;;4.53;2.78;;;;;;;6.80;89.27;96736.00;5000501;28;20030;-88
2022/01/04 13:19:59;;;;;;;4.13;2.90;;;;;;;6.59;88.88;96695.59;4975579;28;20452;-88
2022/01/04 13:22:28;;;;;;;6.70;4.13;;;;;;;6.81;89.04;96727.75;4976161;28;20030;-88
2022/01/04 13:25:00;;;;;;;4.82;3.00;;;;;;;6.80;89.10;96736.81;4991301;28;20033;-88
2022/01/04 13:27:38;;;;;;;4.32;3.10;;;;;;;6.81;89.46;96735.72;4969255;28;20439;-87
2022/01/04 13:30:19;;;;;;;3.65;2.78;;;;;;;6.81;89.96;96732.31;4966035;28;20041;-88
2022/01/04 13:32:46;;;;;;;5.70;3.08;;;;;;;6.80;89.13;96733.34;4954762;28;20052;-88
2022/01/04 13:35:18;;;;;;;5.65;2.85;;;;;;;6.80;88.58;96728.06;4988688;28;20034;-88
2022/01/04 13:37:54;;;;;;;4.15;2.72;;;;;;;6.78;89.65;96723.03;4991791;28;20501;-88
2022/01/04 13:40:21;;;;;;;2.60;2.40;;;;;;;6.77;89.32;96723.31;4972666;28;20038;-88
2022/01/04 13:42:56;;;;;;;2.92;2.72;;;;;;;6.70;89.55;96720.97;4975610;28;20038;-88
2022/01/04 13:45:22;;;;;;;3.97;2.97;;;;;;;6.77;89.17;96726.75;4990525;28;20030;-89
2022/01/04 13:48:00;;;;;;;3.33;2.65;;;;;;;6.71;89.36;96719.91;4992208;28;20031;-86
2022/01/04 13:50:41;;;;;;;6.55;2.53;;;;;;;6.76;89.59;96724.38;4992875;28;20031;-87
2022/01/04 13:53:11;;;;;;;5.43;2.72;;;;;;;6.76;89.47;96719.88;4975011;28;20037;-86
2022/01/04 13:55:58;;;;;;;5.28;2.90;;;;;;;6.75;89.06;96712.97;4991795;28;20033;-87
2022/01/04 13:58:39;;;;;;;2.75;2.42;;;;;;;6.73;89.36;96714.31;4990190;28;20118;-88
2022/01/04 14:01:18;;;;;;;3.20;2.40;;;;;;;6.74;89.44;96713.25;4988161;28;20030;-86
2022/01/04 14:04:06;;;;;;;4.85;2.47;;;;;;;6.73;89.48;96711.66;4966971;28;20431;-87
2022/01/04 14:06:34;;;;;;;3.70;2.65;;;;;;;6.70;88.94;96705.06;4984403;28;20022;-85
2022/01/04 14:09:02;;;;;;;3.65;2.83;;;;;;;6.68;89.16;96712.47;4990513;28;20483;-86
2022/01/04 14:11:29;;;;;;;3.50;2.13;;;;;;;6.61;88.85;96701.41;4989153;28;20439;-87
2022/01/04 14:14:04;;;;;;;2.90;2.40;;;;;;;6.71;89.11;96719.09;4975225;28;20226;-86
2022/01/04 14:16:59;;;;;;;3.75;3.00;;;;;;;6.71;89.09;96714.59;4990710;28;20029;-88
2022/01/04 14:19:31;;;;;;;3.40;2.33;;;;;;;6.70;88.97;96715.69;4988307;28;20037;-87
2022/01/04 14:21:58;;;;;;;2.90;2.17;;;;;;;6.71;89.72;96727.03;4974148;28;20059;-87